30. September 2022

Uhrzeit Code Wetter Temp. Sichtweite Wolkendecke Wind METAR/SPECI
17:00
V
33 °C 10 km+ - 100° 100° 15 - 20 kt METAR AYNZ 300700Z 10015G20KT 9999 HZ SCT040 33/21 Q1007
16:00
V
33 °C 10 km+ - 100° 100° 15 - 20 kt METAR AYNZ 300600Z 10015G20KT 9999 HZ SCT040 33/21 Q1007=
15:00
V
34 °C 10 km+ - 070° 070° 15 - 20 kt METAR AYNZ 300500Z 07015G20KT 9999 HZ SCT040 34/20 Q1007=
14:00
V
34 °C 10 km+ - 080° 080° 15 - 20 kt METAR AYNZ 300400Z 08015G20KT 9999 HZ SCT040 34/18 Q1008
13:00
V
35 °C 10 km+ - 110° 110° 15 - 20 kt METAR AYNZ 300300Z 11015G20KT 9999 HZ SCT040 35/18 Q1009
12:00
V
35 °C 10 km+ - Var Var 4 kt METAR AYNZ 300200Z VRB04KT 9999 FEW050 35/19 Q1010
11:00
V
34 °C 10 km+ - Var Var 4 kt METAR AYNZ 300100Z VRB04KT 9999 FEW050 34/19 Q1011
10:00
V
31 °C 10 km+ - Var Var 3 kt METAR AYNZ 300000Z VRB03KT 9999 HZ FEW050 31/22 Q1012
09:00
V
29 °C 10 km+ - Var Var 3 kt METAR AYNZ 292300Z VRB03KT 9999 HZ FEW050 29/22 Q1013
07:00
V
24 °C 10 km+ - Var Var 3 kt METAR AYNZ 292100Z VRB03KT 9999 SCT030 24/20 Q1013
06:00
V
23 °C 10 km+ - Var Var 3 kt METAR AYNZ 292000Z VRB03KT 9999 SCT030 23/19 Q1012

29. September 2022

Uhrzeit Code Wetter Temp. Sichtweite Wolkendecke Wind METAR/SPECI
16:00
V
32 °C 10 km+ - 100° 100° 15 kt METAR AYNZ 290600Z 10015KT 9999 HZ SCT050 32/21 Q1007
14:00
V
35 °C 10 km+ - 080° 080° 15 kt METAR AYNZ 290400Z 08015KT 9999 HZ SCT050 35/20 Q1008
13:00
V
34 °C 10 km+ - 110° 110° 15 kt METAR AYNZ 290300Z 11015KT 9999 HZ SCT030 SCT050 34/21 Q1009
12:00
V
32 °C 10 km+ - 030° 030° 3 kt METAR AYNZ 290200Z 03003KT 9999 SCT040 32/22 Q1011
11:00
V
31 °C 10 km+ - 170° 170° 4 kt METAR AYNZ 290100Z 17004KT 9999 SCT030 31/23 Q1012=
10:00
V
29 °C 10 km+ - 220° 220° 3 kt METAR AYNZ 290000Z 22003KT 9999 SCT030 29/23 Q1013
Ältere Daten

Wir und Dritte verfolgen dein Internetverhalten auf unserer Website mit Cookies. Wenn du fortfährst, gehen wir davon aus, dass du mit unserer Cookie-Richtlinie einverstanden bist. Mehr erfahren